sensor_id;sensor_type;location;lat;lon;timestamp;temperature;humidity
29777;DHT22;16677;52.224;7.484;2023-07-31T00:00:29;15.90;99.90
29777;DHT22;16677;52.224;7.484;2023-07-31T00:02:57;15.90;99.90
29777;DHT22;16677;52.224;7.484;2023-07-31T00:05:25;15.90;99.90
29777;DHT22;16677;52.224;7.484;2023-07-31T00:07:52;15.80;99.90
29777;DHT22;16677;52.224;7.484;2023-07-31T00:10:20;15.80;99.90
29777;DHT22;16677;52.224;7.484;2023-07-31T00:12:48;15.80;99.90
29777;DHT22;16677;52.224;7.484;2023-07-31T00:15:15;15.70;99.90
29777;DHT22;16677;52.224;7.484;2023-07-31T00:17:42;15.70;99.90
29777;DHT22;16677;52.224;7.484;2023-07-31T00:20:10;15.60;99.90
29777;DHT22;16677;52.224;7.484;2023-07-31T00:22:37;15.60;99.90
29777;DHT22;16677;52.224;7.484;2023-07-31T00:25:04;15.60;99.90
29777;DHT22;16677;52.224;7.484;2023-07-31T00:27:33;15.50;99.90
29777;DHT22;16677;52.224;7.484;2023-07-31T00:30:00;15.50;99.90
29777;DHT22;16677;52.224;7.484;2023-07-31T00:32:27;15.50;99.90
29777;DHT22;16677;52.224;7.484;2023-07-31T00:34:54;15.60;99.90
29777;DHT22;16677;52.224;7.484;2023-07-31T00:37:22;15.60;99.90
29777;DHT22;16677;52.224;7.484;2023-07-31T00:39:49;15.50;99.90
29777;DHT22;16677;52.224;7.484;2023-07-31T00:42:16;15.50;99.90
29777;DHT22;16677;52.224;7.484;2023-07-31T00:44:43;15.50;99.90
29777;DHT22;16677;52.224;7.484;2023-07-31T00:47:10;15.60;99.90
29777;DHT22;16677;52.224;7.484;2023-07-31T00:49:37;15.50;99.90
29777;DHT22;16677;52.224;7.484;2023-07-31T00:52:05;15.50;99.90
29777;DHT22;16677;52.224;7.484;2023-07-31T00:54:33;15.40;99.90
29777;DHT22;16677;52.224;7.484;2023-07-31T00:57:00;15.40;99.90
29777;DHT22;16677;52.224;7.484;2023-07-31T00:59:27;15.40;99.90
29777;DHT22;16677;52.224;7.484;2023-07-31T01:01:55;15.40;99.90
29777;DHT22;16677;52.224;7.484;2023-07-31T01:04:22;15.30;99.90
29777;DHT22;16677;52.224;7.484;2023-07-31T01:06:59;15.40;99.90
29777;DHT22;16677;52.224;7.484;2023-07-31T01:09:59;15.30;99.90
29777;DHT22;16677;52.224;7.484;2023-07-31T01:12:38;15.30;99.90
29777;DHT22;16677;52.224;7.484;2023-07-31T01:15:07;15.30;99.90
29777;DHT22;16677;52.224;7.484;2023-07-31T01:17:39;15.30;99.90
29777;DHT22;16677;52.224;7.484;2023-07-31T01:20:16;15.30;99.90
29777;DHT22;16677;52.224;7.484;2023-07-31T01:26:23;15.30;99.90
29777;DHT22;16677;52.224;7.484;2023-07-31T01:29:26;15.20;99.90
29777;DHT22;16677;52.224;7.484;2023-07-31T01:32:01;15.20;99.90
29777;DHT22;16677;52.224;7.484;2023-07-31T01:34:31;15.40;99.90
29777;DHT22;16677;52.224;7.484;2023-07-31T01:36:59;15.30;99.90
29777;DHT22;16677;52.224;7.484;2023-07-31T01:39:26;15.30;99.90
29777;DHT22;16677;52.224;7.484;2023-07-31T01:41:53;15.30;99.90
29777;DHT22;16677;52.224;7.484;2023-07-31T01:44:21;15.30;99.90
29777;DHT22;16677;52.224;7.484;2023-07-31T01:46:48;15.30;99.90
29777;DHT22;16677;52.224;7.484;2023-07-31T01:49:15;15.20;99.90
29777;DHT22;16677;52.224;7.484;2023-07-31T01:51:42;15.30;99.90
29777;DHT22;16677;52.224;7.484;2023-07-31T01:54:10;15.30;99.90
29777;DHT22;16677;52.224;7.484;2023-07-31T01:56:37;15.30;99.90
29777;DHT22;16677;52.224;7.484;2023-07-31T01:59:05;15.30;99.90
29777;DHT22;16677;52.224;7.484;2023-07-31T02:01:32;15.20;99.90
29777;DHT22;16677;52.224;7.484;2023-07-31T02:04:00;15.20;99.90
29777;DHT22;16677;52.224;7.484;2023-07-31T02:06:27;15.30;99.90
29777;DHT22;16677;52.224;7.484;2023-07-31T02:08:54;15.30;99.90
29777;DHT22;16677;52.224;7.484;2023-07-31T02:11:21;15.20;99.90
29777;DHT22;16677;52.224;7.484;2023-07-31T02:13:48;15.30;99.90
29777;DHT22;16677;52.224;7.484;2023-07-31T02:16:16;15.20;99.90
29777;DHT22;16677;52.224;7.484;2023-07-31T02:18:43;15.30;99.90
29777;DHT22;16677;52.224;7.484;2023-07-31T02:21:10;15.20;99.90
29777;DHT22;16677;52.224;7.484;2023-07-31T02:23:37;15.30;99.90
29777;DHT22;16677;52.224;7.484;2023-07-31T02:26:04;15.30;99.90
29777;DHT22;16677;52.224;7.484;2023-07-31T02:28:32;15.30;99.90
29777;DHT22;16677;52.224;7.484;2023-07-31T02:31:00;15.40;99.90
29777;DHT22;16677;52.224;7.484;2023-07-31T02:33:27;15.50;99.90
29777;DHT22;16677;52.224;7.484;2023-07-31T02:35:55;15.40;99.90
29777;DHT22;16677;52.224;7.484;2023-07-31T02:38:23;15.40;99.90
29777;DHT22;16677;52.224;7.484;2023-07-31T02:40:50;15.40;99.90
29777;DHT22;16677;52.224;7.484;2023-07-31T02:43:17;15.30;99.90
29777;DHT22;16677;52.224;7.484;2023-07-31T02:45:44;15.40;99.90
29777;DHT22;16677;52.224;7.484;2023-07-31T02:48:11;15.40;99.90
29777;DHT22;16677;52.224;7.484;2023-07-31T02:50:39;15.50;99.90
29777;DHT22;16677;52.224;7.484;2023-07-31T02:53:06;15.40;99.90
29777;DHT22;16677;52.224;7.484;2023-07-31T02:55:33;15.50;99.90
29777;DHT22;16677;52.224;7.484;2023-07-31T02:58:00;15.50;99.90
29777;DHT22;16677;52.224;7.484;2023-07-31T03:00:27;15.50;99.90
29777;DHT22;16677;52.224;7.484;2023-07-31T03:02:55;15.50;99.90
29777;DHT22;16677;52.224;7.484;2023-07-31T03:05:22;15.50;99.90
29777;DHT22;16677;52.224;7.484;2023-07-31T03:07:49;15.70;99.90
29777;DHT22;16677;52.224;7.484;2023-07-31T03:10:16;15.70;99.90
29777;DHT22;16677;52.224;7.484;2023-07-31T03:12:47;15.70;99.90
29777;DHT22;16677;52.224;7.484;2023-07-31T03:15:15;15.80;99.90
29777;DHT22;16677;52.224;7.484;2023-07-31T03:17:42;15.90;99.90
29777;DHT22;16677;52.224;7.484;2023-07-31T03:20:10;16.00;99.90
29777;DHT22;16677;52.224;7.484;2023-07-31T03:22:37;16.00;99.90
29777;DHT22;16677;52.224;7.484;2023-07-31T03:25:05;16.10;99.90
29777;DHT22;16677;52.224;7.484;2023-07-31T03:27:33;16.10;99.90
29777;DHT22;16677;52.224;7.484;2023-07-31T03:30:00;16.10;99.90
29777;DHT22;16677;52.224;7.484;2023-07-31T03:32:27;16.20;99.90
29777;DHT22;16677;52.224;7.484;2023-07-31T03:34:55;16.20;99.90
29777;DHT22;16677;52.224;7.484;2023-07-31T03:37:22;16.20;99.90
29777;DHT22;16677;52.224;7.484;2023-07-31T03:39:49;16.20;99.90
29777;DHT22;16677;52.224;7.484;2023-07-31T03:42:16;16.30;99.90
29777;DHT22;16677;52.224;7.484;2023-07-31T03:44:44;16.30;99.90
29777;DHT22;16677;52.224;7.484;2023-07-31T03:47:11;16.40;99.90
29777;DHT22;16677;52.224;7.484;2023-07-31T03:49:38;16.40;99.90
29777;DHT22;16677;52.224;7.484;2023-07-31T03:52:06;16.30;99.90
29777;DHT22;16677;52.224;7.484;2023-07-31T03:54:33;16.40;99.90
29777;DHT22;16677;52.224;7.484;2023-07-31T03:57:01;16.30;99.90
29777;DHT22;16677;52.224;7.484;2023-07-31T03:59:28;16.30;99.90
29777;DHT22;16677;52.224;7.484;2023-07-31T04:01:55;16.30;99.90
29777;DHT22;16677;52.224;7.484;2023-07-31T04:04:22;16.20;99.90
29777;DHT22;16677;52.224;7.484;2023-07-31T04:06:49;16.20;99.90
29777;DHT22;16677;52.224;7.484;2023-07-31T04:09:17;16.20;99.90
29777;DHT22;16677;52.224;7.484;2023-07-31T04:11:44;16.20;99.90
29777;DHT22;16677;52.224;7.484;2023-07-31T04:14:11;16.20;99.90
29777;DHT22;16677;52.224;7.484;2023-07-31T04:16:39;16.20;99.90
29777;DHT22;16677;52.224;7.484;2023-07-31T04:19:06;16.20;99.90
29777;DHT22;16677;52.224;7.484;2023-07-31T04:21:33;16.20;99.90
29777;DHT22;16677;52.224;7.484;2023-07-31T04:24:00;16.30;99.90
29777;DHT22;16677;52.224;7.484;2023-07-31T04:26:28;16.30;99.90
29777;DHT22;16677;52.224;7.484;2023-07-31T04:28:55;16.30;99.90
29777;DHT22;16677;52.224;7.484;2023-07-31T04:31:22;16.40;99.90
29777;DHT22;16677;52.224;7.484;2023-07-31T04:33:49;16.40;99.90
29777;DHT22;16677;52.224;7.484;2023-07-31T04:36:16;16.40;99.90
29777;DHT22;16677;52.224;7.484;2023-07-31T04:38:43;16.40;99.90
29777;DHT22;16677;52.224;7.484;2023-07-31T04:41:11;16.40;99.90
29777;DHT22;16677;52.224;7.484;2023-07-31T04:43:38;16.40;99.90
29777;DHT22;16677;52.224;7.484;2023-07-31T04:46:06;16.30;99.90
29777;DHT22;16677;52.224;7.484;2023-07-31T04:48:34;16.30;99.90
29777;DHT22;16677;52.224;7.484;2023-07-31T04:51:01;16.40;99.90
29777;DHT22;16677;52.224;7.484;2023-07-31T04:53:28;16.40;99.90
29777;DHT22;16677;52.224;7.484;2023-07-31T04:55:55;16.30;99.90
29777;DHT22;16677;52.224;7.484;2023-07-31T04:58:22;16.20;99.90
29777;DHT22;16677;52.224;7.484;2023-07-31T05:00:50;16.30;99.90
29777;DHT22;16677;52.224;7.484;2023-07-31T05:03:17;16.30;99.90
29777;DHT22;16677;52.224;7.484;2023-07-31T05:05:44;16.30;99.90
29777;DHT22;16677;52.224;7.484;2023-07-31T05:08:14;16.30;99.90
29777;DHT22;16677;52.224;7.484;2023-07-31T05:10:44;16.30;99.90
29777;DHT22;16677;52.224;7.484;2023-07-31T05:13:11;16.30;99.90
29777;DHT22;16677;52.224;7.484;2023-07-31T05:15:38;16.30;99.90
29777;DHT22;16677;52.224;7.484;2023-07-31T05:18:05;16.40;99.90
29777;DHT22;16677;52.224;7.484;2023-07-31T05:20:33;16.40;99.90
29777;DHT22;16677;52.224;7.484;2023-07-31T05:23:00;16.40;99.90
29777;DHT22;16677;52.224;7.484;2023-07-31T05:25:27;16.40;99.90
29777;DHT22;16677;52.224;7.484;2023-07-31T05:27:54;16.30;99.90
29777;DHT22;16677;52.224;7.484;2023-07-31T05:30:21;16.30;99.90
29777;DHT22;16677;52.224;7.484;2023-07-31T05:32:49;16.40;99.90
29777;DHT22;16677;52.224;7.484;2023-07-31T05:35:16;16.20;99.90
29777;DHT22;16677;52.224;7.484;2023-07-31T05:37:43;16.40;99.90
29777;DHT22;16677;52.224;7.484;2023-07-31T05:40:10;16.40;99.90
29777;DHT22;16677;52.224;7.484;2023-07-31T05:42:38;16.30;99.90
29777;DHT22;16677;52.224;7.484;2023-07-31T05:45:06;16.30;99.90
29777;DHT22;16677;52.224;7.484;2023-07-31T05:47:34;16.40;99.90
29777;DHT22;16677;52.224;7.484;2023-07-31T05:50:01;16.30;99.90
29777;DHT22;16677;52.224;7.484;2023-07-31T05:52:29;16.20;99.90
29777;DHT22;16677;52.224;7.484;2023-07-31T05:54:56;16.20;99.90
29777;DHT22;16677;52.224;7.484;2023-07-31T05:57:23;16.20;99.90
29777;DHT22;16677;52.224;7.484;2023-07-31T05:59:50;16.10;99.90
29777;DHT22;16677;52.224;7.484;2023-07-31T06:02:17;16.10;99.90
29777;DHT22;16677;52.224;7.484;2023-07-31T06:04:45;16.20;99.90
29777;DHT22;16677;52.224;7.484;2023-07-31T06:07:12;16.20;99.90
29777;DHT22;16677;52.224;7.484;2023-07-31T06:09:39;16.20;99.90
29777;DHT22;16677;52.224;7.484;2023-07-31T06:12:06;16.20;99.90
29777;DHT22;16677;52.224;7.484;2023-07-31T06:14:34;16.30;99.90
29777;DHT22;16677;52.224;7.484;2023-07-31T06:17:01;16.40;99.90
29777;DHT22;16677;52.224;7.484;2023-07-31T06:19:28;16.50;99.90
29777;DHT22;16677;52.224;7.484;2023-07-31T06:21:56;16.50;99.90
29777;DHT22;16677;52.224;7.484;2023-07-31T06:24:23;16.40;99.90
29777;DHT22;16677;52.224;7.484;2023-07-31T06:26:50;16.50;99.90
29777;DHT22;16677;52.224;7.484;2023-07-31T06:31:45;16.50;99.90
29777;DHT22;16677;52.224;7.484;2023-07-31T06:34:13;16.60;99.90
29777;DHT22;16677;52.224;7.484;2023-07-31T06:36:40;16.60;99.90
29777;DHT22;16677;52.224;7.484;2023-07-31T06:39:07;16.60;99.90
29777;DHT22;16677;52.224;7.484;2023-07-31T06:41:35;16.70;99.90
29777;DHT22;16677;52.224;7.484;2023-07-31T06:44:03;16.70;99.90
29777;DHT22;16677;52.224;7.484;2023-07-31T06:46:30;16.70;99.90
29777;DHT22;16677;52.224;7.484;2023-07-31T06:48:57;16.80;99.90
29777;DHT22;16677;52.224;7.484;2023-07-31T06:51:24;16.90;99.90
29777;DHT22;16677;52.224;7.484;2023-07-31T06:53:52;16.90;87.90
29777;DHT22;16677;52.224;7.484;2023-07-31T06:56:20;16.80;96.40
29777;DHT22;16677;52.224;7.484;2023-07-31T06:58:47;16.80;99.90
29777;DHT22;16677;52.224;7.484;2023-07-31T07:01:14;16.80;99.90
29777;DHT22;16677;52.224;7.484;2023-07-31T07:03:45;16.70;99.90
29777;DHT22;16677;52.224;7.484;2023-07-31T07:06:13;16.70;99.90
29777;DHT22;16677;52.224;7.484;2023-07-31T07:08:40;16.70;99.90
29777;DHT22;16677;52.224;7.484;2023-07-31T07:11:07;16.60;99.90
29777;DHT22;16677;52.224;7.484;2023-07-31T07:13:35;16.70;99.90
29777;DHT22;16677;52.224;7.484;2023-07-31T07:16:05;16.60;99.90
29777;DHT22;16677;52.224;7.484;2023-07-31T07:18:32;16.60;99.90
29777;DHT22;16677;52.224;7.484;2023-07-31T07:20:59;16.60;99.90
29777;DHT22;16677;52.224;7.484;2023-07-31T07:23:29;16.50;99.90
29777;DHT22;16677;52.224;7.484;2023-07-31T07:25:56;16.50;99.90
29777;DHT22;16677;52.224;7.484;2023-07-31T07:28:23;16.50;99.90
29777;DHT22;16677;52.224;7.484;2023-07-31T07:30:53;16.60;99.90
29777;DHT22;16677;52.224;7.484;2023-07-31T07:33:21;16.50;99.90
29777;DHT22;16677;52.224;7.484;2023-07-31T07:35:48;16.60;99.90
29777;DHT22;16677;52.224;7.484;2023-07-31T07:38:15;16.70;99.90
29777;DHT22;16677;52.224;7.484;2023-07-31T07:40:42;16.70;99.90
29777;DHT22;16677;52.224;7.484;2023-07-31T07:43:10;16.80;99.90
29777;DHT22;16677;52.224;7.484;2023-07-31T07:45:37;16.80;99.90
29777;DHT22;16677;52.224;7.484;2023-07-31T07:48:04;16.80;99.90
29777;DHT22;16677;52.224;7.484;2023-07-31T07:50:31;16.90;99.90
29777;DHT22;16677;52.224;7.484;2023-07-31T07:52:59;16.90;99.90
29777;DHT22;16677;52.224;7.484;2023-07-31T07:55:26;16.90;99.90
29777;DHT22;16677;52.224;7.484;2023-07-31T07:57:53;16.90;99.90
29777;DHT22;16677;52.224;7.484;2023-07-31T08:00:20;17.00;99.90
29777;DHT22;16677;52.224;7.484;2023-07-31T08:02:47;17.00;99.90
29777;DHT22;16677;52.224;7.484;2023-07-31T08:05:15;17.10;99.90
29777;DHT22;16677;52.224;7.484;2023-07-31T08:07:44;17.00;99.90
29777;DHT22;16677;52.224;7.484;2023-07-31T08:10:11;17.10;99.90
29777;DHT22;16677;52.224;7.484;2023-07-31T08:12:38;17.00;99.90
29777;DHT22;16677;52.224;7.484;2023-07-31T08:15:06;17.10;99.90
29777;DHT22;16677;52.224;7.484;2023-07-31T08:17:34;17.10;99.90
29777;DHT22;16677;52.224;7.484;2023-07-31T08:20:01;17.10;99.90
29777;DHT22;16677;52.224;7.484;2023-07-31T08:22:28;17.20;99.90
29777;DHT22;16677;52.224;7.484;2023-07-31T08:24:55;17.20;99.90
29777;DHT22;16677;52.224;7.484;2023-07-31T08:27:22;17.20;99.90
29777;DHT22;16677;52.224;7.484;2023-07-31T08:29:49;17.20;99.90
29777;DHT22;16677;52.224;7.484;2023-07-31T08:32:19;17.20;99.90
29777;DHT22;16677;52.224;7.484;2023-07-31T08:34:46;17.40;99.90
29777;DHT22;16677;52.224;7.484;2023-07-31T08:37:13;17.40;99.90
29777;DHT22;16677;52.224;7.484;2023-07-31T08:39:40;17.50;99.90
29777;DHT22;16677;52.224;7.484;2023-07-31T08:42:08;17.50;99.90
29777;DHT22;16677;52.224;7.484;2023-07-31T08:44:36;17.60;99.90
29777;DHT22;16677;52.224;7.484;2023-07-31T08:47:04;17.60;99.90
29777;DHT22;16677;52.224;7.484;2023-07-31T08:49:33;17.70;99.90
29777;DHT22;16677;52.224;7.484;2023-07-31T08:52:02;17.60;99.90
29777;DHT22;16677;52.224;7.484;2023-07-31T08:54:30;17.70;99.90
29777;DHT22;16677;52.224;7.484;2023-07-31T08:57:01;17.70;99.90
29777;DHT22;16677;52.224;7.484;2023-07-31T08:59:31;17.60;99.90
29777;DHT22;16677;52.224;7.484;2023-07-31T09:02:05;17.70;99.90
29777;DHT22;16677;52.224;7.484;2023-07-31T09:04:34;17.60;99.90
29777;DHT22;16677;52.224;7.484;2023-07-31T09:07:03;17.70;99.90
29777;DHT22;16677;52.224;7.484;2023-07-31T09:09:31;17.60;99.90
29777;DHT22;16677;52.224;7.484;2023-07-31T09:11:59;17.90;99.90
29777;DHT22;16677;52.224;7.484;2023-07-31T09:14:26;17.90;99.90
29777;DHT22;16677;52.224;7.484;2023-07-31T09:16:55;17.90;99.90
29777;DHT22;16677;52.224;7.484;2023-07-31T09:22:00;17.60;99.90
29777;DHT22;16677;52.224;7.484;2023-07-31T09:24:32;17.70;99.90
29777;DHT22;16677;52.224;7.484;2023-07-31T09:27:01;17.80;99.90
29777;DHT22;16677;52.224;7.484;2023-07-31T09:29:29;17.90;99.90
29777;DHT22;16677;52.224;7.484;2023-07-31T09:31:57;17.80;99.90
29777;DHT22;16677;52.224;7.484;2023-07-31T09:34:30;17.70;99.90
29777;DHT22;16677;52.224;7.484;2023-07-31T09:37:05;17.80;99.90
29777;DHT22;16677;52.224;7.484;2023-07-31T09:39:32;17.80;99.90
29777;DHT22;16677;52.224;7.484;2023-07-31T09:42:12;17.70;99.90
29777;DHT22;16677;52.224;7.484;2023-07-31T09:44:40;17.80;99.90
29777;DHT22;16677;52.224;7.484;2023-07-31T09:47:24;17.80;99.90
29777;DHT22;16677;52.224;7.484;2023-07-31T09:49:52;17.90;99.90
29777;DHT22;16677;52.224;7.484;2023-07-31T09:52:21;17.90;99.90
29777;DHT22;16677;52.224;7.484;2023-07-31T09:54:49;17.90;99.90
29777;DHT22;16677;52.224;7.484;2023-07-31T09:57:17;18.00;99.90
29777;DHT22;16677;52.224;7.484;2023-07-31T09:59:47;17.90;99.90
29777;DHT22;16677;52.224;7.484;2023-07-31T10:02:22;17.90;99.90
29777;DHT22;16677;52.224;7.484;2023-07-31T10:04:50;18.10;99.90
29777;DHT22;16677;52.224;7.484;2023-07-31T10:07:18;18.20;99.90
29777;DHT22;16677;52.224;7.484;2023-07-31T10:09:47;18.40;99.90
29777;DHT22;16677;52.224;7.484;2023-07-31T10:12:17;18.40;99.90
29777;DHT22;16677;52.224;7.484;2023-07-31T10:14:46;18.40;99.90
29777;DHT22;16677;52.224;7.484;2023-07-31T10:17:14;18.50;99.90
29777;DHT22;16677;52.224;7.484;2023-07-31T10:19:42;18.60;99.90
29777;DHT22;16677;52.224;7.484;2023-07-31T10:22:11;18.60;99.90
29777;DHT22;16677;52.224;7.484;2023-07-31T10:24:40;18.70;99.90
29777;DHT22;16677;52.224;7.484;2023-07-31T10:27:14;18.60;99.90
29777;DHT22;16677;52.224;7.484;2023-07-31T10:29:43;18.70;99.30
29777;DHT22;16677;52.224;7.484;2023-07-31T10:32:11;18.60;59.60
29777;DHT22;16677;52.224;7.484;2023-07-31T10:34:40;18.30;99.90
29777;DHT22;16677;52.224;7.484;2023-07-31T10:37:29;18.20;99.90
29777;DHT22;16677;52.224;7.484;2023-07-31T10:40:06;18.20;99.90
29777;DHT22;16677;52.224;7.484;2023-07-31T10:42:38;18.40;99.90
29777;DHT22;16677;52.224;7.484;2023-07-31T10:45:42;18.30;99.90
29777;DHT22;16677;52.224;7.484;2023-07-31T10:48:16;18.40;99.90
29777;DHT22;16677;52.224;7.484;2023-07-31T10:50:49;18.10;99.90
29777;DHT22;16677;52.224;7.484;2023-07-31T10:53:30;18.10;99.90
29777;DHT22;16677;52.224;7.484;2023-07-31T10:56:03;18.00;99.90
29777;DHT22;16677;52.224;7.484;2023-07-31T10:58:32;18.10;99.90
29777;DHT22;16677;52.224;7.484;2023-07-31T11:01:02;18.20;99.90
29777;DHT22;16677;52.224;7.484;2023-07-31T11:03:47;18.30;99.90
29777;DHT22;16677;52.224;7.484;2023-07-31T11:06:16;18.30;99.90
29777;DHT22;16677;52.224;7.484;2023-07-31T11:08:49;18.30;99.90
29777;DHT22;16677;52.224;7.484;2023-07-31T11:11:19;18.40;99.90
29777;DHT22;16677;52.224;7.484;2023-07-31T11:13:48;18.40;82.10
29777;DHT22;16677;52.224;7.484;2023-07-31T11:16:24;18.70;99.90
29777;DHT22;16677;52.224;7.484;2023-07-31T11:18:53;18.80;99.90
29777;DHT22;16677;52.224;7.484;2023-07-31T11:21:24;18.70;80.00
29777;DHT22;16677;52.224;7.484;2023-07-31T11:23:53;18.70;66.20
29777;DHT22;16677;52.224;7.484;2023-07-31T11:26:26;18.70;15.50
29777;DHT22;16677;52.224;7.484;2023-07-31T11:28:54;18.80;60.30
29777;DHT22;16677;52.224;7.484;2023-07-31T11:31:21;18.90;75.70
29777;DHT22;16677;52.224;7.484;2023-07-31T11:33:49;18.60;1.00
29777;DHT22;16677;52.224;7.484;2023-07-31T11:36:20;18.50;99.90
29777;DHT22;16677;52.224;7.484;2023-07-31T11:38:48;18.50;99.90
29777;DHT22;16677;52.224;7.484;2023-07-31T11:41:16;18.50;99.90
29777;DHT22;16677;52.224;7.484;2023-07-31T11:43:46;18.60;97.10
29777;DHT22;16677;52.224;7.484;2023-07-31T11:46:14;18.70;59.30
29777;DHT22;16677;52.224;7.484;2023-07-31T11:48:42;18.70;2.30
29777;DHT22;16677;52.224;7.484;2023-07-31T11:51:11;18.70;94.70
29777;DHT22;16677;52.224;7.484;2023-07-31T11:53:45;18.80;1.00
29777;DHT22;16677;52.224;7.484;2023-07-31T11:56:17;18.60;39.10
29777;DHT22;16677;52.224;7.484;2023-07-31T11:58:48;18.70;68.10
29777;DHT22;16677;52.224;7.484;2023-07-31T12:01:18;18.90;31.10
29777;DHT22;16677;52.224;7.484;2023-07-31T12:03:47;18.80;9.00
29777;DHT22;16677;52.224;7.484;2023-07-31T12:06:15;18.90;27.80
29777;DHT22;16677;52.224;7.484;2023-07-31T12:08:43;19.10;1.00
29777;DHT22;16677;52.224;7.484;2023-07-31T12:11:12;19.00;1.00
29777;DHT22;16677;52.224;7.484;2023-07-31T12:13:44;18.80;1.00
29777;DHT22;16677;52.224;7.484;2023-07-31T12:16:11;18.70;30.40
29777;DHT22;16677;52.224;7.484;2023-07-31T12:18:39;18.90;26.50
29777;DHT22;16677;52.224;7.484;2023-07-31T12:21:08;18.90;1.00
29777;DHT22;16677;52.224;7.484;2023-07-31T12:23:38;18.90;1.00
29777;DHT22;16677;52.224;7.484;2023-07-31T12:26:11;18.70;1.00
29777;DHT22;16677;52.224;7.484;2023-07-31T12:28:47;19.10;1.00
29777;DHT22;16677;52.224;7.484;2023-07-31T12:31:21;19.40;1.00
29777;DHT22;16677;52.224;7.484;2023-07-31T12:33:51;19.40;1.00
29777;DHT22;16677;52.224;7.484;2023-07-31T12:36:21;19.30;1.00
29777;DHT22;16677;52.224;7.484;2023-07-31T12:38:52;19.60;1.00
29777;DHT22;16677;52.224;7.484;2023-07-31T12:41:19;19.80;99.90
29777;DHT22;16677;52.224;7.484;2023-07-31T12:43:46;19.60;99.90
29777;DHT22;16677;52.224;7.484;2023-07-31T12:46:14;19.80;1.00
29777;DHT22;16677;52.224;7.484;2023-07-31T12:48:41;19.70;1.00
29777;DHT22;16677;52.224;7.484;2023-07-31T12:51:08;19.80;1.00
29777;DHT22;16677;52.224;7.484;2023-07-31T12:53:36;19.80;1.00
29777;DHT22;16677;52.224;7.484;2023-07-31T12:56:04;19.80;1.00
29777;DHT22;16677;52.224;7.484;2023-07-31T12:58:31;19.80;1.00
29777;DHT22;16677;52.224;7.484;2023-07-31T13:00:58;19.70;1.00
29777;DHT22;16677;52.224;7.484;2023-07-31T13:03:26;19.60;1.00
29777;DHT22;16677;52.224;7.484;2023-07-31T13:05:53;19.30;1.00
29777;DHT22;16677;52.224;7.484;2023-07-31T13:08:21;19.40;1.00
29777;DHT22;16677;52.224;7.484;2023-07-31T13:10:48;19.70;1.00
29777;DHT22;16677;52.224;7.484;2023-07-31T13:13:15;19.70;1.00
29777;DHT22;16677;52.224;7.484;2023-07-31T13:15:43;19.60;1.00
29777;DHT22;16677;52.224;7.484;2023-07-31T13:18:11;19.60;1.00
29777;DHT22;16677;52.224;7.484;2023-07-31T13:20:39;19.50;1.00
29777;DHT22;16677;52.224;7.484;2023-07-31T13:23:06;19.60;1.00
29777;DHT22;16677;52.224;7.484;2023-07-31T13:25:33;19.30;1.00
29777;DHT22;16677;52.224;7.484;2023-07-31T13:28:00;19.30;1.00
29777;DHT22;16677;52.224;7.484;2023-07-31T13:30:29;19.10;1.00
29777;DHT22;16677;52.224;7.484;2023-07-31T13:32:56;19.30;1.00
29777;DHT22;16677;52.224;7.484;2023-07-31T13:35:24;19.40;1.00
29777;DHT22;16677;52.224;7.484;2023-07-31T13:37:52;19.50;1.00
29777;DHT22;16677;52.224;7.484;2023-07-31T13:40:19;19.60;1.00
29777;DHT22;16677;52.224;7.484;2023-07-31T13:42:46;19.80;1.00
29777;DHT22;16677;52.224;7.484;2023-07-31T13:45:15;19.70;1.00
29777;DHT22;16677;52.224;7.484;2023-07-31T13:47:42;19.60;1.00
29777;DHT22;16677;52.224;7.484;2023-07-31T13:50:09;19.90;99.90
29777;DHT22;16677;52.224;7.484;2023-07-31T13:52:37;20.00;99.90
29777;DHT22;16677;52.224;7.484;2023-07-31T13:55:04;19.80;99.90
29777;DHT22;16677;52.224;7.484;2023-07-31T13:57:32;19.60;1.00
29777;DHT22;16677;52.224;7.484;2023-07-31T13:59:59;19.80;99.90
29777;DHT22;16677;52.224;7.484;2023-07-31T14:02:27;19.90;99.90
29777;DHT22;16677;52.224;7.484;2023-07-31T14:04:54;19.90;99.90
29777;DHT22;16677;52.224;7.484;2023-07-31T14:07:21;19.90;99.90
29777;DHT22;16677;52.224;7.484;2023-07-31T14:09:49;19.70;99.90
29777;DHT22;16677;52.224;7.484;2023-07-31T14:12:16;19.80;1.00
29777;DHT22;16677;52.224;7.484;2023-07-31T14:15:03;19.80;99.90
29777;DHT22;16677;52.224;7.484;2023-07-31T14:17:31;20.00;99.90
29777;DHT22;16677;52.224;7.484;2023-07-31T14:19:58;20.00;1.00
29777;DHT22;16677;52.224;7.484;2023-07-31T14:22:30;19.80;87.00
29777;DHT22;16677;52.224;7.484;2023-07-31T14:24:57;19.90;99.90
29777;DHT22;16677;52.224;7.484;2023-07-31T14:27:25;20.00;99.90
29777;DHT22;16677;52.224;7.484;2023-07-31T14:29:52;20.00;99.90
29777;DHT22;16677;52.224;7.484;2023-07-31T14:32:20;20.30;99.90
29777;DHT22;16677;52.224;7.484;2023-07-31T14:34:48;20.40;1.00
29777;DHT22;16677;52.224;7.484;2023-07-31T14:37:15;20.60;1.00
29777;DHT22;16677;52.224;7.484;2023-07-31T14:39:42;20.70;1.00
29777;DHT22;16677;52.224;7.484;2023-07-31T14:42:10;20.70;99.90
29777;DHT22;16677;52.224;7.484;2023-07-31T14:44:37;20.50;99.90
29777;DHT22;16677;52.224;7.484;2023-07-31T14:47:05;20.80;99.90
29777;DHT22;16677;52.224;7.484;2023-07-31T14:49:33;20.60;1.00
29777;DHT22;16677;52.224;7.484;2023-07-31T14:52:00;20.40;24.70
29777;DHT22;16677;52.224;7.484;2023-07-31T14:54:27;20.30;99.90
29777;DHT22;16677;52.224;7.484;2023-07-31T14:56:54;20.30;1.00
29777;DHT22;16677;52.224;7.484;2023-07-31T14:59:21;20.30;99.90
29777;DHT22;16677;52.224;7.484;2023-07-31T15:01:50;20.20;99.90
29777;DHT22;16677;52.224;7.484;2023-07-31T15:04:17;20.10;1.00
29777;DHT22;16677;52.224;7.484;2023-07-31T15:06:44;20.00;1.00
29777;DHT22;16677;52.224;7.484;2023-07-31T15:09:12;19.90;1.00
29777;DHT22;16677;52.224;7.484;2023-07-31T15:11:39;19.90;1.00
29777;DHT22;16677;52.224;7.484;2023-07-31T15:14:07;19.90;61.60
29777;DHT22;16677;52.224;7.484;2023-07-31T15:16:34;20.10;52.90
29777;DHT22;16677;52.224;7.484;2023-07-31T15:19:02;19.80;99.90
29777;DHT22;16677;52.224;7.484;2023-07-31T15:21:29;19.40;1.00
29777;DHT22;16677;52.224;7.484;2023-07-31T15:23:56;19.50;1.00
29777;DHT22;16677;52.224;7.484;2023-07-31T15:26:24;19.40;1.00
29777;DHT22;16677;52.224;7.484;2023-07-31T15:29:05;19.40;1.00
29777;DHT22;16677;52.224;7.484;2023-07-31T15:31:36;19.30;1.00
29777;DHT22;16677;52.224;7.484;2023-07-31T15:34:03;19.40;1.00
29777;DHT22;16677;52.224;7.484;2023-07-31T15:36:31;19.20;1.00
29777;DHT22;16677;52.224;7.484;2023-07-31T15:38:58;19.00;56.70
29777;DHT22;16677;52.224;7.484;2023-07-31T15:41:26;18.90;99.90
29777;DHT22;16677;52.224;7.484;2023-07-31T15:43:53;18.90;99.90
29777;DHT22;16677;52.224;7.484;2023-07-31T15:46:20;19.00;99.90
29777;DHT22;16677;52.224;7.484;2023-07-31T15:48:48;19.10;99.90